createdAt,value
2019-02-27T00:01:16.757Z,7.40
2019-02-27T00:03:44.281Z,11.07
2019-02-27T00:06:12.893Z,10.43
2019-02-27T00:08:43.028Z,13.33
2019-02-27T00:11:12.484Z,10.57
2019-02-27T00:13:41.685Z,10.47
2019-02-27T00:16:11.048Z,12.03
2019-02-27T00:18:40.438Z,10.47
2019-02-27T00:21:10.993Z,13.47
2019-02-27T00:23:39.323Z,11.37
2019-02-27T00:26:08.979Z,11.07
2019-02-27T00:28:38.189Z,13.10
2019-02-27T00:31:11.219Z,14.70
2019-02-27T00:33:37.156Z,9.40
2019-02-27T00:36:05.947Z,13.87
2019-02-27T00:38:34.486Z,8.60
2019-02-27T00:41:03.082Z,8.67
2019-02-27T00:43:31.621Z,8.07
2019-02-27T00:46:00.202Z,8.50
2019-02-27T00:48:28.873Z,10.07
2019-02-27T00:50:57.736Z,8.60
2019-02-27T00:53:26.307Z,12.47
2019-02-27T00:55:54.900Z,9.73
2019-02-27T00:58:26.798Z,9.97
2019-02-27T01:00:53.809Z,6.97
2019-02-27T01:03:25.973Z,8.63
2019-02-27T01:05:52.603Z,6.67
2019-02-27T01:08:21.135Z,7.53
2019-02-27T01:10:49.716Z,9.83
2019-02-27T01:13:24.273Z,8.43
2019-02-27T01:15:53.646Z,8.23
2019-02-27T01:18:22.482Z,7.10
2019-02-27T01:20:51.605Z,6.77
2019-02-27T01:23:20.474Z,7.50
2019-02-27T01:25:49.135Z,8.73
2019-02-27T01:28:17.764Z,6.17
2019-02-27T01:30:46.341Z,10.70
2019-02-27T01:33:37.789Z,7.10
2019-02-27T01:36:04.603Z,9.43
2019-02-27T01:38:33.154Z,6.90
2019-02-27T01:41:24.423Z,10.33
2019-02-27T01:43:51.391Z,5.53
2019-02-27T01:46:20.148Z,5.63
2019-02-27T01:49:08.006Z,8.80
2019-02-27T01:51:36.602Z,5.97
2019-02-27T01:54:05.252Z,6.17
2019-02-27T01:56:33.845Z,8.20
2019-02-27T01:59:02.444Z,5.67
2019-02-27T02:01:31.089Z,6.63
2019-02-27T02:03:59.928Z,10.53
2019-02-27T02:06:31.920Z,6.97
2019-02-27T02:09:31.285Z,5.50
2019-02-27T02:12:03.281Z,6.00
2019-02-27T02:14:54.373Z,7.77
2019-02-27T02:17:26.212Z,6.03
2019-02-27T02:20:00.940Z,6.40
2019-02-27T02:22:32.476Z,5.87
2019-02-27T02:25:09.805Z,5.97
2019-02-27T02:27:56.449Z,6.23
2019-02-27T02:30:39.929Z,8.23
2019-02-27T02:33:11.614Z,8.40
2019-02-27T02:36:07.730Z,7.23
2019-02-27T02:38:48.255Z,10.20
2019-02-27T02:41:25.750Z,7.17
2019-02-27T02:44:21.953Z,6.23
2019-02-27T02:47:05.950Z,5.93
2019-02-27T02:49:49.687Z,6.03
2019-02-27T02:52:40.772Z,8.07
2019-02-27T02:55:20.342Z,7.17
2019-02-27T02:58:07.810Z,9.00
2019-02-27T03:01:04.482Z,11.07
2019-02-27T03:03:51.014Z,8.53
2019-02-27T03:06:34.721Z,8.40
2019-02-27T03:09:21.365Z,6.93
2019-02-27T03:11:54.726Z,5.10
2019-02-27T03:14:53.339Z,8.77
2019-02-27T03:17:45.255Z,7.10
2019-02-27T03:20:52.413Z,8.23
2019-02-27T03:23:38.698Z,6.97
2019-02-27T03:26:29.749Z,5.97
2019-02-27T03:29:01.354Z,6.07
2019-02-27T03:31:57.426Z,5.57
2019-02-27T03:34:27.171Z,6.97
2019-02-27T03:36:58.826Z,8.50
2019-02-27T03:39:45.540Z,9.40
2019-02-27T03:42:17.164Z,10.43
2019-02-27T03:45:01.044Z,7.83
2019-02-27T03:48:09.217Z,7.10
2019-02-27T03:50:56.002Z,7.47
2019-02-27T03:53:46.424Z,4.67
2019-02-27T03:56:30.715Z,7.67
2019-02-27T03:59:20.508Z,6.27
2019-02-27T04:02:06.300Z,6.07
2019-02-27T04:05:12.235Z,5.50
2019-02-27T04:08:06.818Z,5.63
2019-02-27T04:10:31.248Z,4.87
2019-02-27T04:13:00.967Z,5.07
2019-02-27T04:15:29.605Z,5.00
2019-02-27T04:17:57.226Z,8.03
2019-02-27T04:20:25.877Z,6.30
2019-02-27T04:22:54.484Z,6.10
2019-02-27T04:25:23.065Z,6.20
2019-02-27T04:27:55.236Z,8.63
2019-02-27T04:30:21.897Z,10.23
2019-02-27T04:32:50.517Z,12.67
2019-02-27T04:35:19.079Z,9.63
2019-02-27T04:37:47.670Z,8.00
2019-02-27T04:40:16.413Z,9.90
2019-02-27T04:42:44.969Z,9.70
2019-02-27T04:45:13.597Z,8.00
2019-02-27T04:47:42.155Z,7.50
2019-02-27T04:50:11.377Z,8.97
2019-02-27T04:52:40.811Z,9.97
2019-02-27T04:55:09.421Z,8.23
2019-02-27T04:57:37.959Z,7.27
2019-02-27T05:00:09.410Z,9.20
2019-02-27T05:02:38.025Z,6.10
2019-02-27T05:05:08.724Z,6.90
2019-02-27T05:07:38.033Z,10.57
2019-02-27T05:10:09.646Z,7.20
2019-02-27T05:12:38.303Z,9.87
2019-02-27T05:15:08.899Z,7.90
2019-02-27T05:17:39.201Z,8.43
2019-02-27T05:20:11.484Z,10.33
2019-02-27T05:22:39.418Z,10.87
2019-02-27T05:25:08.192Z,9.90
2019-02-27T05:27:36.801Z,9.97
2019-02-27T05:30:13.325Z,11.77
2019-02-27T05:32:41.968Z,12.23
2019-02-27T05:35:10.508Z,14.40
2019-02-27T05:37:39.425Z,10.67
2019-02-27T05:40:10.511Z,15.23
2019-02-27T05:42:39.675Z,9.77
2019-02-27T05:45:14.415Z,10.63
2019-02-27T05:47:45.663Z,10.37
2019-02-27T05:50:13.481Z,9.90
2019-02-27T05:52:42.064Z,15.37
2019-02-27T05:55:10.743Z,13.87
2019-02-27T05:57:39.331Z,11.33
2019-02-27T06:00:13.715Z,14.20
2019-02-27T06:02:44.979Z,11.10
2019-02-27T06:05:13.217Z,10.53
2019-02-27T06:07:41.729Z,10.23
2019-02-27T06:10:19.742Z,8.70
2019-02-27T06:12:45.189Z,5.73
2019-02-27T06:15:18.492Z,12.13
2019-02-27T06:17:49.102Z,7.07
2019-02-27T06:20:17.481Z,7.97
2019-02-27T06:22:46.081Z,7.23
2019-02-27T06:25:21.695Z,9.60
2019-02-27T06:27:47.988Z,7.67
2019-02-27T06:30:18.706Z,9.00
2019-02-27T06:32:47.700Z,10.13
2019-02-27T06:35:16.984Z,10.90
2019-02-27T06:37:45.616Z,9.20
2019-02-27T06:40:18.669Z,8.40
2019-02-27T06:42:47.315Z,11.87
2019-02-27T06:45:17.834Z,14.50
2019-02-27T06:47:46.467Z,12.97
2019-02-27T06:50:18.046Z,11.33
2019-02-27T06:52:46.585Z,12.13
2019-02-27T06:55:16.041Z,9.83
2019-02-27T06:57:44.664Z,8.93
2019-02-27T07:00:24.087Z,13.83
2019-02-27T07:02:55.130Z,14.03
2019-02-27T07:05:23.128Z,10.23
2019-02-27T07:07:51.757Z,11.27
2019-02-27T07:10:20.683Z,12.57
2019-02-27T07:12:49.496Z,14.33
2019-02-27T07:15:19.937Z,11.43
2019-02-27T07:17:48.396Z,9.50
2019-02-27T07:20:17.417Z,12.30
2019-02-27T07:22:46.773Z,10.67
2019-02-27T07:25:19.327Z,12.43
2019-02-27T07:27:47.991Z,12.20
2019-02-27T07:30:20.614Z,14.83
2019-02-27T07:32:49.488Z,11.47
2019-02-27T07:35:18.176Z,13.43
2019-02-27T07:37:47.974Z,12.10
2019-02-27T07:40:18.801Z,12.57
2019-02-27T07:42:47.460Z,8.77
2019-02-27T07:45:24.993Z,18.47
2019-02-27T07:47:53.493Z,17.80
2019-02-27T07:50:22.478Z,13.50
2019-02-27T07:52:52.095Z,14.13
2019-02-27T07:55:22.913Z,12.17
2019-02-27T07:57:51.424Z,8.00
2019-02-27T08:00:22.347Z,11.63
2019-02-27T08:02:50.977Z,11.77
2019-02-27T08:05:19.708Z,12.83
2019-02-27T08:07:49.034Z,14.73
2019-02-27T08:10:23.548Z,12.43
2019-02-27T08:12:55.507Z,11.87
2019-02-27T08:15:23.277Z,12.33
2019-02-27T08:17:52.014Z,10.50
2019-02-27T08:20:21.235Z,11.23
2019-02-27T08:22:50.222Z,9.17
2019-02-27T08:25:20.854Z,11.13
2019-02-27T08:27:50.434Z,8.97
2019-02-27T08:30:21.349Z,12.60
2019-02-27T08:32:50.059Z,10.80
2019-02-27T08:35:18.682Z,19.00
2019-02-27T08:37:47.378Z,17.47
2019-02-27T08:40:16.220Z,15.30
2019-02-27T08:42:44.950Z,12.87
2019-02-27T08:45:20.477Z,14.97
2019-02-27T08:47:49.329Z,14.17
2019-02-27T08:50:23.484Z,14.77
2019-02-27T08:52:52.033Z,14.27
2019-02-27T08:55:22.667Z,11.07
2019-02-27T08:57:56.044Z,19.63
2019-02-27T09:00:29.833Z,16.90
2019-02-27T09:03:02.517Z,12.80
2019-02-27T09:05:28.846Z,12.30
2019-02-27T09:07:57.479Z,12.50
2019-02-27T09:10:30.454Z,13.60
2019-02-27T09:13:05.352Z,15.37
2019-02-27T09:15:28.254Z,16.40
2019-02-27T09:17:59.210Z,14.50
2019-02-27T09:20:27.201Z,12.37
2019-02-27T09:22:56.008Z,13.10
2019-02-27T09:25:24.962Z,8.93
2019-02-27T09:27:55.041Z,13.07
2019-02-27T09:30:29.276Z,12.00
2019-02-27T09:32:57.145Z,8.40
2019-02-27T09:35:25.836Z,9.37
2019-02-27T09:37:54.483Z,14.93
2019-02-27T09:40:42.526Z,13.20
2019-02-27T09:43:11.721Z,10.87
2019-02-27T09:45:46.216Z,14.50
2019-02-27T09:48:12.591Z,15.80
2019-02-27T09:50:47.625Z,17.17
2019-02-27T09:53:14.108Z,11.57
2019-02-27T09:55:42.776Z,13.07
2019-02-27T09:58:12.274Z,12.37
2019-02-27T10:00:45.908Z,12.07
2019-02-27T10:03:20.236Z,13.30
2019-02-27T10:05:45.724Z,16.57
2019-02-27T10:08:14.697Z,13.33
2019-02-27T10:10:45.781Z,15.70
2019-02-27T10:13:13.743Z,19.57
2019-02-27T10:15:42.582Z,13.20
2019-02-27T10:18:11.308Z,15.70
2019-02-27T10:20:39.961Z,13.30
2019-02-27T10:23:08.805Z,16.43
2019-02-27T10:25:37.470Z,13.87
2019-02-27T10:28:06.227Z,15.90
2019-02-27T10:30:34.768Z,14.43
2019-02-27T10:33:03.640Z,17.93
2019-02-27T10:35:34.669Z,16.33
2019-02-27T10:38:03.153Z,12.63
2019-02-27T10:40:32.148Z,14.93
2019-02-27T10:43:00.803Z,14.10
2019-02-27T10:45:29.438Z,12.33
2019-02-27T10:47:58.357Z,13.47
2019-02-27T10:50:30.583Z,20.47
2019-02-27T10:52:59.238Z,12.97
2019-02-27T10:55:27.912Z,15.37
2019-02-27T10:57:56.842Z,12.70
2019-02-27T11:00:29.131Z,14.17
2019-02-27T11:02:58.753Z,12.20
2019-02-27T11:05:29.681Z,14.80
2019-02-27T11:07:58.251Z,15.70
2019-02-27T11:10:27.035Z,11.67
2019-02-27T11:12:56.037Z,9.37
2019-02-27T11:15:24.682Z,12.63
2019-02-27T11:17:54.380Z,7.93
2019-02-27T11:20:24.609Z,9.53
2019-02-27T11:22:53.493Z,8.20
2019-02-27T11:25:33.007Z,6.63
2019-02-27T11:28:01.671Z,9.60
2019-02-27T11:30:41.007Z,8.67
2019-02-27T11:33:10.131Z,8.23
2019-02-27T11:35:39.110Z,5.77
2019-02-27T11:38:08.084Z,5.10
2019-02-27T11:40:41.537Z,6.57
2019-02-27T11:43:07.594Z,5.67
2019-02-27T11:45:36.697Z,6.20
2019-02-27T11:48:07.878Z,5.77
2019-02-27T11:50:38.489Z,6.57
2019-02-27T11:53:26.529Z,10.10
2019-02-27T11:55:55.197Z,8.73
2019-02-27T11:58:23.826Z,6.30
2019-02-27T12:00:54.670Z,6.50
2019-02-27T12:03:23.530Z,6.53
2019-02-27T12:05:52.056Z,8.23
2019-02-27T12:08:22.420Z,8.60
2019-02-27T12:10:51.320Z,6.37
2019-02-27T12:13:19.964Z,6.07
2019-02-27T12:15:48.879Z,8.47
2019-02-27T12:18:17.668Z,6.80
2019-02-27T12:20:46.517Z,6.47
2019-02-27T12:23:15.177Z,8.87
2019-02-27T12:25:44.115Z,6.90
2019-02-27T12:28:15.210Z,9.63
2019-02-27T12:30:44.560Z,7.07
2019-02-27T12:33:13.204Z,7.40
2019-02-27T12:35:44.007Z,8.53
2019-02-27T12:38:12.220Z,6.53
2019-02-27T12:40:41.067Z,8.33
2019-02-27T12:43:09.823Z,6.30
2019-02-27T12:45:38.711Z,14.00
2019-02-27T12:48:08.775Z,8.57
2019-02-27T12:50:37.651Z,7.77
2019-02-27T12:53:06.260Z,12.53
2019-02-27T12:55:36.415Z,7.07
2019-02-27T12:58:05.685Z,8.83
2019-02-27T13:00:37.131Z,6.73
2019-02-27T13:03:08.460Z,6.47
2019-02-27T13:05:36.675Z,9.63
2019-02-27T13:08:05.361Z,12.10
2019-02-27T13:10:34.379Z,6.00
2019-02-27T13:13:03.359Z,8.40
2019-02-27T13:15:32.250Z,7.00
2019-02-27T13:18:00.871Z,7.57
2019-02-27T13:20:31.748Z,5.67
2019-02-27T13:23:04.129Z,6.83
2019-02-27T13:25:30.992Z,7.23
2019-02-27T13:27:59.887Z,9.40
2019-02-27T13:30:29.977Z,6.30
2019-02-27T13:33:01.098Z,7.13
2019-02-27T13:35:30.399Z,7.70
2019-02-27T13:37:58.956Z,8.03
2019-02-27T13:40:34.985Z,11.27
2019-02-27T13:43:01.243Z,8.90
2019-02-27T13:45:32.436Z,10.10
2019-02-27T13:48:04.838Z,5.27
2019-02-27T13:50:31.448Z,7.70
2019-02-27T13:53:00.109Z,5.47
2019-02-27T13:55:28.798Z,5.33
2019-02-27T13:57:59.199Z,6.90
2019-02-27T14:00:33.613Z,6.30
2019-02-27T14:03:02.355Z,5.07
2019-02-27T14:05:35.101Z,6.30
2019-02-27T14:08:01.416Z,15.03
2019-02-27T14:10:34.405Z,12.33
2019-02-27T14:13:03.101Z,21.00
2019-02-27T14:15:31.999Z,20.17
2019-02-27T14:18:00.796Z,20.80
2019-02-27T14:20:29.897Z,25.13
2019-02-27T14:22:59.547Z,12.47
2019-02-27T14:25:33.000Z,10.30
2019-02-27T14:28:00.933Z,12.37
2019-02-27T14:30:40.005Z,8.07
2019-02-27T14:33:08.613Z,6.57
2019-02-27T14:35:37.281Z,9.07
2019-02-27T14:38:05.915Z,8.00
2019-02-27T14:40:37.650Z,6.77
2019-02-27T14:43:06.773Z,7.67
2019-02-27T14:45:39.558Z,6.23
2019-02-27T14:48:06.608Z,9.10
2019-02-27T14:50:37.667Z,7.40
2019-02-27T14:53:06.236Z,7.50
2019-02-27T14:55:37.235Z,7.30
2019-02-27T14:58:05.751Z,7.73
2019-02-27T15:00:39.829Z,9.57
2019-02-27T15:03:06.774Z,5.50
2019-02-27T15:05:36.756Z,8.03
2019-02-27T15:08:05.830Z,8.10
2019-02-27T15:10:40.222Z,8.00
2019-02-27T15:13:28.333Z,6.93
2019-02-27T15:16:00.358Z,13.33
2019-02-27T15:18:29.042Z,6.00
2019-02-27T15:20:57.737Z,15.40
2019-02-27T15:23:28.187Z,10.13
2019-02-27T15:25:56.706Z,14.40
2019-02-27T15:28:25.294Z,11.33
2019-02-27T15:30:53.966Z,8.13
2019-02-27T15:33:22.645Z,9.80
2019-02-27T15:35:55.142Z,9.70
2019-02-27T15:38:22.226Z,8.60
2019-02-27T15:40:50.889Z,9.93
2019-02-27T15:43:19.948Z,13.53
2019-02-27T15:45:49.082Z,10.77
2019-02-27T15:48:18.236Z,10.57
2019-02-27T15:50:47.058Z,9.63
2019-02-27T15:53:15.908Z,10.70
2019-02-27T15:55:44.654Z,9.47
2019-02-27T15:58:14.653Z,11.20
2019-02-27T16:00:44.976Z,10.57
2019-02-27T16:03:16.022Z,8.77
2019-02-27T16:05:45.181Z,8.87
2019-02-27T16:08:15.351Z,12.00
2019-02-27T16:10:54.518Z,12.47
2019-02-27T16:13:16.008Z,11.57
2019-02-27T16:15:48.405Z,9.87
2019-02-27T16:18:15.424Z,10.17
2019-02-27T16:20:44.010Z,10.03
2019-02-27T16:23:12.556Z,10.40
2019-02-27T16:25:41.133Z,10.03
2019-02-27T16:28:12.068Z,10.73
2019-02-27T16:30:40.327Z,10.67
2019-02-27T16:33:09.053Z,12.37
2019-02-27T16:35:41.639Z,9.33
2019-02-27T16:38:08.581Z,10.70
2019-02-27T16:40:37.249Z,14.77
2019-02-27T16:43:05.768Z,11.47
2019-02-27T16:45:37.127Z,10.30
2019-02-27T16:48:06.231Z,14.33
2019-02-27T16:50:39.661Z,8.63
2019-02-27T16:53:08.192Z,11.13
2019-02-27T16:55:38.066Z,13.83
2019-02-27T16:58:07.269Z,14.43
2019-02-27T17:00:39.189Z,12.07
2019-02-27T17:03:13.083Z,14.43
2019-02-27T17:05:40.357Z,12.30
2019-02-27T17:08:08.913Z,12.00
2019-02-27T17:10:38.738Z,13.20
2019-02-27T17:13:07.470Z,14.33
2019-02-27T17:15:36.525Z,11.43
2019-02-27T17:18:05.614Z,11.20
2019-02-27T17:20:34.366Z,15.10
2019-02-27T17:23:07.446Z,14.37
2019-02-27T17:25:33.272Z,15.73
2019-02-27T17:28:02.477Z,15.10
2019-02-27T17:30:38.167Z,16.20
2019-02-27T17:33:07.275Z,16.50
2019-02-27T17:35:35.883Z,17.37
2019-02-27T17:38:04.630Z,11.97
2019-02-27T17:40:36.220Z,16.77
2019-02-27T17:43:03.704Z,32.00
2019-02-27T17:45:32.756Z,19.13
2019-02-27T17:48:01.569Z,17.63
2019-02-27T17:50:31.720Z,15.07
2019-02-27T17:53:00.510Z,18.10
2019-02-27T17:55:29.446Z,18.90
2019-02-27T17:57:59.237Z,20.60
2019-02-27T18:00:31.357Z,19.47
2019-02-27T18:03:00.101Z,23.10
2019-02-27T18:05:28.766Z,21.90
2019-02-27T18:07:57.454Z,18.63
2019-02-27T18:10:26.377Z,23.37
2019-02-27T18:12:55.042Z,23.27
2019-02-27T18:15:24.746Z,20.83
2019-02-27T18:17:53.775Z,29.50
2019-02-27T18:20:25.526Z,24.90
2019-02-27T18:22:53.395Z,25.50
2019-02-27T18:25:22.225Z,24.30
2019-02-27T18:27:50.773Z,24.03
2019-02-27T18:30:21.288Z,20.47
2019-02-27T18:32:51.167Z,26.40
2019-02-27T18:35:20.583Z,25.13
2019-02-27T18:37:53.608Z,27.97
2019-02-27T18:40:21.010Z,30.07
2019-02-27T18:43:08.983Z,23.53
2019-02-27T18:45:37.561Z,24.83
2019-02-27T18:48:07.316Z,26.07
2019-02-27T18:50:37.438Z,27.20
2019-02-27T18:53:07.476Z,32.87
2019-02-27T18:55:36.447Z,26.60
2019-02-27T18:58:05.445Z,23.67
2019-02-27T19:00:36.302Z,21.77
2019-02-27T19:03:12.038Z,20.17
2019-02-27T19:05:42.042Z,21.37
2019-02-27T19:08:11.207Z,24.73
2019-02-27T19:10:42.378Z,23.87
2019-02-27T19:13:10.028Z,24.23
2019-02-27T19:15:38.871Z,23.50
2019-02-27T19:18:08.143Z,19.67
2019-02-27T19:20:47.171Z,21.80
2019-02-27T19:23:17.848Z,21.83
2019-02-27T19:25:46.590Z,25.03
2019-02-27T19:28:15.781Z,20.77
2019-02-27T19:30:44.517Z,27.67
2019-02-27T19:33:13.139Z,19.80
2019-02-27T19:35:41.810Z,17.97
2019-02-27T19:38:12.903Z,21.27
2019-02-27T19:40:41.608Z,23.27
2019-02-27T19:43:10.296Z,21.60
2019-02-27T19:45:38.908Z,22.87
2019-02-27T19:48:07.587Z,23.17
2019-02-27T19:50:36.500Z,21.23
2019-02-27T19:53:06.900Z,18.60
2019-02-27T19:55:35.867Z,18.80
2019-02-27T19:58:04.534Z,22.03
2019-02-27T20:00:35.411Z,19.50
2019-02-27T20:03:23.660Z,22.37
2019-02-27T20:05:53.898Z,17.17
2019-02-27T20:08:26.355Z,15.97
2019-02-27T20:10:54.747Z,18.50
2019-02-27T20:13:24.715Z,18.70
2019-02-27T20:15:54.080Z,21.97
2019-02-27T20:18:43.650Z,21.00
2019-02-27T20:21:17.428Z,30.43
2019-02-27T20:23:45.977Z,33.40
2019-02-27T20:26:20.093Z,22.53
2019-02-27T20:28:45.523Z,25.10
2019-02-27T20:31:17.858Z,21.90
2019-02-27T20:33:44.897Z,30.57
2019-02-27T20:36:13.493Z,28.27
2019-02-27T20:38:43.490Z,30.20
2019-02-27T20:41:12.280Z,27.17
2019-02-27T20:43:40.863Z,28.13
2019-02-27T20:46:14.656Z,25.53
2019-02-27T20:48:42.686Z,21.17
2019-02-27T20:51:11.579Z,28.83
2019-02-27T20:53:40.215Z,25.40
2019-02-27T20:56:08.938Z,22.57
2019-02-27T20:58:37.690Z,21.63
2019-02-27T21:01:09.988Z,23.30
2019-02-27T21:03:36.802Z,24.97
2019-02-27T21:06:05.489Z,26.80
2019-02-27T21:08:36.176Z,24.07
2019-02-27T21:11:23.756Z,24.57
2019-02-27T21:13:52.336Z,23.77
2019-02-27T21:16:21.061Z,25.47
2019-02-27T21:18:49.854Z,22.37
2019-02-27T21:21:19.829Z,23.70
2019-02-27T21:23:48.753Z,25.13
2019-02-27T21:26:19.980Z,20.37
2019-02-27T21:28:58.096Z,21.47
2019-02-27T21:31:19.719Z,20.20
2019-02-27T21:33:48.356Z,23.50
2019-02-27T21:36:17.102Z,24.63
2019-02-27T21:38:47.522Z,38.33
2019-02-27T21:41:16.076Z,26.17
2019-02-27T21:43:45.072Z,25.00
2019-02-27T21:46:13.734Z,22.27
2019-02-27T21:48:42.555Z,17.23
2019-02-27T21:51:13.849Z,21.73
2019-02-27T21:53:43.465Z,21.37
2019-02-27T21:56:12.234Z,18.83
2019-02-27T21:58:40.838Z,26.10
2019-02-27T22:01:09.586Z,27.07
2019-02-27T22:03:38.398Z,21.50
2019-02-27T22:06:10.451Z,19.23
2019-02-27T22:08:39.554Z,22.27
2019-02-27T22:11:08.522Z,22.30
2019-02-27T22:13:37.047Z,24.63
2019-02-27T22:16:05.742Z,30.90
2019-02-27T22:18:34.518Z,22.20
2019-02-27T22:21:03.166Z,20.83
2019-02-27T22:23:31.988Z,28.93
2019-02-27T22:26:03.145Z,29.93
2019-02-27T22:28:30.808Z,24.17
2019-02-27T22:30:59.416Z,21.00
2019-02-27T22:33:28.071Z,28.97
2019-02-27T22:35:56.662Z,23.60
2019-02-27T22:38:26.596Z,25.57
2019-02-27T22:40:56.733Z,28.57
2019-02-27T22:43:25.373Z,27.13
2019-02-27T22:45:53.968Z,24.80
2019-02-27T22:48:22.558Z,22.70
2019-02-27T22:50:51.597Z,20.47
2019-02-27T22:53:20.216Z,24.00
2019-02-27T22:55:48.775Z,19.03
2019-02-27T22:58:19.559Z,18.87
2019-02-27T23:00:57.859Z,19.40
2019-02-27T23:03:44.673Z,24.53
2019-02-27T23:06:14.376Z,20.10
2019-02-27T23:08:44.166Z,23.37
2019-02-27T23:11:13.330Z,21.80
2019-02-27T23:13:47.413Z,23.77
2019-02-27T23:16:15.617Z,21.50
2019-02-27T23:18:44.380Z,23.20
2019-02-27T23:21:13.307Z,17.40
2019-02-27T23:23:42.162Z,21.43
2019-02-27T23:26:10.830Z,22.23
2019-02-27T23:28:39.674Z,27.57
2019-02-27T23:31:22.236Z,20.97
2019-02-27T23:33:46.818Z,18.83
2019-02-27T23:36:15.414Z,17.23
2019-02-27T23:38:44.107Z,16.43
2019-02-27T23:41:12.854Z,18.97
2019-02-27T23:43:41.574Z,23.17
2019-02-27T23:46:10.334Z,15.50
2019-02-27T23:48:39.057Z,19.47
2019-02-27T23:51:07.642Z,16.20
2019-02-27T23:53:38.237Z,19.87
2019-02-27T23:56:07.205Z,20.43
2019-02-27T23:58:35.814Z,17.37
